Time;durP1;ratioP1;P1;durP2;ratioP2;P2;SDS_P1;SDS_P2;PMS_P1;PMS_P2;Temp;Humidity;BMP_temperature;BMP_pressure;BME280_temperature;BME280_humidity;BME280_pressure;Samples;Min_cycle;Max_cycle;Signal;HPM_P1;HPM_P2
2023/04/15 00:00:30;;;;;;;2.27;1.40;;;;;;;8.35;77.55;63814.72;5053408;28;20204;-57
2023/04/15 00:02:55;;;;;;;1.93;1.00;;;;;;;8.15;76.76;63795.38;5071295;28;20287;-57
2023/04/15 00:05:21;;;;;;;3.07;1.40;;;;;;;8.26;77.36;63804.34;5071321;28;20323;-56
2023/04/15 00:07:46;;;;;;;5.20;2.67;;;;;;;8.32;77.78;63808.91;5071326;28;20215;-56
2023/04/15 00:10:15;;;;;;;10.60;5.57;;;;;;;8.36;78.11;63815.28;5071209;28;20192;-58
2023/04/15 00:12:41;;;;;;;8.83;5.37;;;;;;;8.35;77.74;63812.22;5071241;28;20189;-57
2023/04/15 00:15:08;;;;;;;9.03;5.73;;;;;;;8.32;81.35;63811.44;5071025;28;20574;-58
2023/04/15 00:17:33;;;;;;;7.87;4.73;;;;;;;7.91;83.32;63763.59;5071092;28;20238;-58
2023/04/15 00:19:59;;;;;;;3.47;1.70;;;;;;;7.30;92.69;63697.56;5053147;28;20193;-57
2023/04/15 00:22:26;;;;;;;3.70;2.17;;;;;;;7.83;92.12;63757.38;5069784;28;20193;-57
2023/04/15 00:24:52;;;;;;;4.97;2.10;;;;;;;8.20;91.71;63797.78;5070849;28;20211;-57
2023/04/15 00:27:18;;;;;;;4.80;2.17;;;;;;;8.56;89.49;63834.06;5070636;28;20193;-58
2023/04/15 00:29:44;;;;;;;3.07;1.90;;;;;;;8.76;88.54;63860.91;5052713;28;20216;-56
2023/04/15 00:32:09;;;;;;;3.63;1.80;;;;;;;8.75;86.95;63854.78;5070845;28;20579;-57
2023/04/15 00:34:35;;;;;;;2.90;1.97;;;;;;;8.81;86.19;63861.91;5070999;28;20217;-56
2023/04/15 00:37:01;;;;;;;2.70;2.23;;;;;;;8.95;88.84;63877.19;5070751;28;20717;-57
2023/04/15 00:39:27;;;;;;;4.80;2.17;;;;;;;9.07;87.71;63890.31;5070882;28;20205;-58
2023/04/15 00:41:53;;;;;;;3.33;2.10;;;;;;;9.23;87.12;63909.78;5070610;28;20180;-57
2023/04/15 00:44:18;;;;;;;4.23;2.63;;;;;;;9.37;87.18;63924.53;5070601;28;20205;-58
2023/04/15 00:46:44;;;;;;;3.30;2.57;;;;;;;9.32;87.00;63917.09;5070549;28;20592;-57
2023/04/15 00:49:10;;;;;;;3.93;2.73;;;;;;;9.24;83.08;63910.88;5070369;28;20222;-56
2023/04/15 00:51:35;;;;;;;3.53;2.40;;;;;;;9.26;83.94;63913.59;5070512;28;20189;-57
2023/04/15 00:54:05;;;;;;;4.93;2.40;;;;;;;9.53;84.71;63940.06;5070796;28;20291;-59
2023/04/15 00:56:35;;;;;;;5.03;2.97;;;;;;;9.51;82.88;63940.41;5070394;28;20193;-58
2023/04/15 00:59:01;;;;;;;5.97;2.67;;;;;;;9.58;84.38;63944.97;5070432;28;20201;-56
2023/04/15 01:01:28;;;;;;;5.43;2.93;;;;;;;9.64;83.95;63954.59;5070517;28;20193;-58
2023/04/15 01:03:57;;;;;;;7.20;2.87;;;;;;;9.61;84.43;63951.31;5070732;28;20212;-58
2023/04/15 01:06:23;;;;;;;4.93;3.17;;;;;;;9.41;82.29;63924.44;5070469;28;20205;-56
2023/04/15 01:08:48;;;;;;;6.00;2.97;;;;;;;9.42;81.68;63930.53;5070231;28;20596;-57
2023/04/15 01:11:14;;;;;;;3.23;2.70;;;;;;;9.21;82.35;63907.59;5070157;28;20730;-58
2023/04/15 01:13:40;;;;;;;4.57;3.27;;;;;;;9.17;83.32;63901.25;5070427;28;20627;-56
2023/04/15 01:16:07;;;;;;;3.80;2.60;;;;;;;9.13;81.15;63898.84;5070403;28;20192;-57
2023/04/15 01:18:33;;;;;;;4.20;2.37;;;;;;;8.92;81.60;63873.38;5070080;28;20698;-58
2023/04/15 01:21:01;;;;;;;4.93;2.60;;;;;;;8.79;81.80;63859.16;5070194;28;20200;-57
2023/04/15 01:23:26;;;;;;;4.37;2.30;;;;;;;8.76;80.93;63861.47;5070331;28;20254;-59
2023/04/15 01:25:52;;;;;;;5.33;2.47;;;;;;;8.74;79.56;63856.78;5069992;28;20283;-58
2023/04/15 01:28:19;;;;;;;4.00;1.90;;;;;;;8.63;77.38;63844.19;5070065;28;20228;-57
2023/04/15 01:30:44;;;;;;;2.63;1.70;;;;;;;8.57;78.83;63837.66;5069929;28;20239;-58
2023/04/15 01:33:10;;;;;;;2.40;1.50;;;;;;;8.53;78.81;63831.31;5080346;22;20295;-58
2023/04/15 01:35:36;;;;;;;3.70;1.93;;;;;;;8.22;78.91;63800.50;5073498;28;20216;-58
2023/04/15 01:38:07;;;;;;;5.07;2.10;;;;;;;8.28;78.49;63804.03;5072155;28;20640;-58
2023/04/15 01:40:33;;;;;;;4.10;2.00;;;;;;;8.27;79.35;63803.47;5073334;28;20192;-58
2023/04/15 01:43:00;;;;;;;2.50;2.03;;;;;;;8.12;79.47;63787.06;5073588;28;20261;-60
2023/04/15 01:45:26;;;;;;;2.13;1.60;;;;;;;7.95;80.73;63771.03;5073272;28;20583;-57
2023/04/15 01:47:51;;;;;;;3.20;1.83;;;;;;;7.92;81.25;63767.75;5073105;28;20246;-59
2023/04/15 01:50:17;;;;;;;3.07;1.87;;;;;;;7.70;82.47;63743.72;5073285;28;20193;-58
2023/04/15 01:52:43;;;;;;;4.93;1.97;;;;;;;7.67;81.61;63737.97;5073193;28;20193;-58
2023/04/15 01:55:10;;;;;;;7.77;1.80;;;;;;;7.60;81.86;63733.38;5073268;28;20667;-58
2023/04/15 01:57:35;;;;;;;3.70;1.93;;;;;;;7.52;81.79;63724.09;5073175;28;20191;-58
2023/04/15 02:00:02;;;;;;;2.53;1.80;;;;;;;7.49;81.94;63723.84;5073067;28;20201;-59
2023/04/15 02:02:28;;;;;;;3.33;1.77;;;;;;;7.47;82.96;63718.63;5073002;28;20192;-58
2023/04/15 02:04:53;;;;;;;3.27;1.80;;;;;;;7.56;82.96;63729.00;5072900;28;20209;-58
2023/04/15 02:07:19;;;;;;;4.17;1.87;;;;;;;7.49;83.80;63721.34;5072815;28;20657;-58
2023/04/15 02:09:45;;;;;;;2.57;1.83;;;;;;;7.72;84.88;63745.91;5073018;28;20566;-58
2023/04/15 02:12:11;;;;;;;3.67;1.80;;;;;;;7.83;83.93;63757.94;5072904;28;20172;-58
2023/04/15 02:14:36;;;;;;;2.37;1.90;;;;;;;8.13;84.56;63790.13;5072893;28;20213;-58
2023/04/15 02:17:06;;;;;;;2.50;1.73;;;;;;;8.17;84.80;63792.53;5072876;28;20653;-59
2023/04/15 02:19:32;;;;;;;2.63;1.80;;;;;;;8.32;82.69;63808.91;5072907;28;20208;-59
2023/04/15 02:21:58;;;;;;;2.97;1.73;;;;;;;8.60;84.07;63838.41;5072616;28;20268;-58
2023/04/15 02:24:24;;;;;;;2.43;1.63;;;;;;;8.56;82.89;63834.06;5072650;28;20713;-56
2023/04/15 02:26:49;;;;;;;6.27;1.73;;;;;;;8.54;84.13;63831.88;5072719;28;20193;-56
2023/04/15 02:29:15;;;;;;;3.27;2.13;;;;;;;8.28;82.68;63807.06;5072839;28;20644;-57
2023/04/15 02:31:41;;;;;;;6.00;2.27;;;;;;;8.00;84.12;63773.44;5072822;28;20200;-58
2023/04/15 02:34:07;;;;;;;2.83;1.73;;;;;;;8.11;83.72;63785.97;5072897;28;20692;-57
2023/04/15 02:36:33;;;;;;;3.67;1.93;;;;;;;8.21;85.44;63796.34;5072727;28;20562;-57
2023/04/15 02:38:59;;;;;;;2.67;2.13;;;;;;;8.33;85.04;63809.47;5072724;28;20208;-58
2023/04/15 02:41:26;;;;;;;2.80;1.70;;;;;;;8.08;87.18;63787.19;5072484;28;20643;-58
2023/04/15 02:43:52;;;;;;;4.70;2.03;;;;;;;8.09;87.10;63785.75;5053580;28;20347;-57
2023/04/15 02:46:17;;;;;;;3.73;2.10;;;;;;;8.19;87.80;63796.69;5072055;28;20314;-57
2023/04/15 02:48:43;;;;;;;5.67;2.17;;;;;;;8.26;89.02;63802.38;5072076;28;20216;-55
2023/04/15 02:51:13;;;;;;;4.50;2.00;;;;;;;8.64;87.56;63845.31;5072306;28;20184;-57
2023/04/15 02:53:38;;;;;;;3.90;2.13;;;;;;;8.60;87.23;63838.97;5072507;28;20219;-59
2023/04/15 02:56:05;;;;;;;3.47;2.03;;;;;;;8.27;91.06;63805.97;5072199;28;20193;-57
2023/04/15 02:58:30;;;;;;;4.03;1.93;;;;;;;7.98;90.88;63773.75;5072325;28;20205;-60
2023/04/15 03:00:56;;;;;;;3.70;1.90;;;;;;;8.33;87.53;63810.03;5072117;28;20242;-57
2023/04/15 03:03:21;;;;;;;2.67;1.80;;;;;;;8.30;86.49;63809.25;5054114;28;20213;-57
2023/04/15 03:05:47;;;;;;;2.03;1.60;;;;;;;7.57;90.48;63729.56;5054242;28;20250;-58
2023/04/15 03:08:13;;;;;;;4.20;1.77;;;;;;;7.42;94.15;63713.19;5072015;28;20228;-58
2023/04/15 03:10:39;;;;;;;2.37;2.13;;;;;;;7.93;89.26;63768.84;5054018;28;20626;-59
2023/04/15 03:13:04;;;;;;;2.70;1.77;;;;;;;7.83;87.94;63757.38;5072213;28;20209;-57
2023/04/15 03:15:31;;;;;;;5.27;2.23;;;;;;;7.39;91.47;63709.91;5072180;28;20193;-57
2023/04/15 03:17:57;;;;;;;4.03;1.90;;;;;;;7.27;94.35;63699.31;5054087;28;20223;-57
2023/04/15 03:20:23;;;;;;;3.20;2.53;;;;;;;7.54;91.15;63724.31;5071898;28;20193;-58
2023/04/15 03:22:48;;;;;;;2.53;2.23;;;;;;;7.30;92.72;63700.63;5072092;28;20280;-57
2023/04/15 03:25:14;;;;;;;3.57;2.47;;;;;;;7.36;90.93;63706.63;5071864;28;20189;-58
2023/04/15 03:27:40;;;;;;;3.47;1.93;;;;;;;7.35;90.25;63705.56;5071739;28;20192;-57
2023/04/15 03:30:07;;;;;;;4.57;2.50;;;;;;;7.43;89.73;63714.81;5071721;28;20189;-57
2023/04/15 03:32:33;;;;;;;3.17;2.27;;;;;;;7.62;88.09;63735.00;5071483;28;20657;-57
2023/04/15 03:34:58;;;;;;;6.87;2.33;;;;;;;7.74;87.81;63747.56;5071673;28;20193;-56
2023/04/15 03:37:24;;;;;;;3.40;2.13;;;;;;;7.67;86.39;63739.91;5071599;28;20326;-56
2023/04/15 03:39:49;;;;;;;3.13;2.23;;;;;;;7.71;85.93;63746.78;5071831;28;20219;-61
2023/04/15 03:42:15;;;;;;;5.13;2.43;;;;;;;7.72;85.38;63745.91;5071725;28;20185;-61
2023/04/15 03:44:41;;;;;;;3.13;2.27;;;;;;;7.48;88.47;63720.28;5071545;28;20590;-60
2023/04/15 03:47:06;;;;;;;3.33;2.30;;;;;;;7.14;90.09;63682.63;5071316;28;20184;-60
2023/04/15 03:49:32;;;;;;;2.87;1.77;;;;;;;7.32;90.40;63699.75;5071178;28;20227;-59
2023/04/15 03:51:58;;;;;;;4.23;2.00;;;;;;;7.49;90.63;63718.31;5071556;28;20191;-59
2023/04/15 03:54:24;;;;;;;3.40;2.17;;;;;;;7.49;90.04;63721.34;5071276;28;20221;-58
2023/04/15 03:56:49;;;;;;;4.60;2.23;;;;;;;7.65;89.09;63738.81;5071172;28;20207;-60
2023/04/15 03:59:15;;;;;;;6.37;2.53;;;;;;;7.58;90.20;63733.13;5071108;28;20651;-58
2023/04/15 04:01:40;;;;;;;2.60;2.07;;;;;;;7.49;91.62;63723.34;5053275;28;20554;-58
2023/04/15 04:04:06;;;;;;;4.17;2.17;;;;;;;7.52;91.90;63722.13;5071551;28;20687;-57
2023/04/15 04:06:31;;;;;;;5.70;2.40;;;;;;;7.28;94.39;63697.91;5071317;28;20188;-59
2023/04/15 04:08:57;;;;;;;6.87;2.30;;;;;;;7.63;92.86;63734.13;5071222;28;20224;-57
2023/04/15 04:11:22;;;;;;;3.10;2.43;;;;;;;7.68;91.35;63744.06;5071277;28;20279;-59
2023/04/15 04:13:48;;;;;;;3.07;2.43;;;;;;;7.64;92.76;63737.19;5071117;28;20212;-56
2023/04/15 04:16:13;;;;;;;3.70;2.83;;;;;;;7.82;91.06;63754.31;5071000;28;20189;-57
2023/04/15 04:18:38;;;;;;;7.73;4.13;;;;;;;7.51;91.60;63721.03;5070847;28;20571;-57
2023/04/15 04:21:04;;;;;;;5.57;3.80;;;;;;;7.26;95.78;63696.28;5070907;28;20658;-57
2023/04/15 04:23:30;;;;;;;7.77;4.30;;;;;;;7.21;95.72;63690.81;5070780;28;20714;-57
2023/04/15 04:25:55;;;;;;;6.33;5.17;;;;;;;7.20;95.83;63689.19;5070948;28;20193;-57
2023/04/15 04:28:21;;;;;;;5.47;3.93;;;;;;;7.71;94.61;63744.81;5070924;28;20743;-59
2023/04/15 04:30:46;;;;;;;9.53;4.97;;;;;;;7.90;92.97;63765.56;5070676;28;20693;-59
2023/04/15 04:33:12;;;;;;;8.83;4.67;;;;;;;7.99;91.50;63772.88;5070965;28;20237;-59
2023/04/15 04:35:37;;;;;;;8.07;4.57;;;;;;;7.78;93.96;63754.97;5069348;28;20655;-58
2023/04/15 04:38:03;;;;;;;9.00;5.40;;;;;;;7.73;93.56;63743.94;5070478;28;20298;-57
2023/04/15 04:40:28;;;;;;;8.33;4.97;;;;;;;7.82;93.20;63753.78;5070762;28;20196;-59
2023/04/15 04:42:54;;;;;;;8.27;5.03;;;;;;;7.99;92.10;63775.38;5070726;28;20594;-57
2023/04/15 04:45:19;;;;;;;7.20;4.80;;;;;;;8.05;93.17;63784.44;5070453;28;20246;-57
2023/04/15 04:47:46;;;;;;;8.13;5.07;;;;;;;7.87;94.25;63762.28;5070376;28;20204;-57
2023/04/15 04:50:11;;;;;;;5.87;4.63;;;;;;;7.65;95.64;63738.81;5070596;28;20275;-57
2023/04/15 04:52:37;;;;;;;8.40;5.13;;;;;;;8.07;94.64;63783.56;5070382;28;20268;-58
2023/04/15 04:55:03;;;;;;;11.13;6.03;;;;;;;8.24;93.11;63802.69;5070459;28;20205;-57
2023/04/15 04:57:28;;;;;;;10.80;5.77;;;;;;;8.41;91.22;63818.22;5070577;28;20283;-58
2023/04/15 04:59:54;;;;;;;9.87;5.97;;;;;;;8.53;89.91;63836.34;5070318;28;20217;-58
2023/04/15 05:02:19;;;;;;;9.33;5.87;;;;;;;8.17;90.91;63790.03;5070214;28;20640;-58
2023/04/15 05:04:44;;;;;;;9.50;5.77;;;;;;;8.83;100.00;63866.06;5070400;28;20631;-59
2023/04/15 05:07:10;;;;;;;9.23;6.00;;;;;;;8.43;94.20;63820.94;5070302;28;20697;-58
2023/04/15 05:09:35;;;;;;;10.23;5.80;;;;;;;8.32;93.55;63810.91;5073909;28;20244;-57
2023/04/15 05:12:02;;;;;;;9.67;5.77;;;;;;;8.33;93.03;63810.03;5073840;28;20191;-57
2023/04/15 05:14:28;;;;;;;9.70;6.07;;;;;;;8.62;91.42;63843.13;5073991;28;20220;-58
2023/04/15 05:16:53;;;;;;;9.47;5.87;;;;;;;8.68;89.32;63850.22;5073764;28;20633;-57
2023/04/15 05:19:19;;;;;;;11.47;6.83;;;;;;;8.80;89.52;63860.81;5073586;28;20208;-57
2023/04/15 05:21:44;;;;;;;8.33;4.80;;;;;;;8.63;88.79;63841.69;5073667;28;20187;-57
2023/04/15 05:24:09;;;;;;;11.73;7.03;;;;;;;8.36;89.78;63815.81;5073485;28;20591;-57
2023/04/15 05:26:35;;;;;;;9.40;5.70;;;;;;;8.57;87.11;63835.13;5073609;28;20211;-57
2023/04/15 05:29:01;;;;;;;6.83;4.30;;;;;;;8.65;82.36;63846.94;5073214;28;20710;-57
2023/04/15 05:31:26;;;;;;;6.33;4.23;;;;;;;8.73;82.31;63857.63;5073521;28;20192;-58
2023/04/15 05:33:52;;;;;;;4.53;3.63;;;;;;;9.11;80.89;63896.66;5073761;28;20219;-59
2023/04/15 05:36:17;;;;;;;6.63;4.23;;;;;;;9.17;79.33;63900.72;5073254;28;20230;-58
2023/04/15 05:38:43;;;;;;;6.93;4.23;;;;;;;9.44;78.82;63930.22;5073462;28;20521;-57
2023/04/15 05:41:08;;;;;;;6.73;3.83;;;;;;;9.61;76.96;63948.81;5073604;28;20181;-57
2023/04/15 05:43:34;;;;;;;7.50;4.37;;;;;;;9.39;78.93;63927.28;5071930;28;20678;-57
2023/04/15 05:45:59;;;;;;;6.23;4.30;;;;;;;9.44;78.41;63929.66;5072865;28;20659;-57
2023/04/15 05:48:24;;;;;;;6.60;3.93;;;;;;;9.60;77.96;63947.16;5073221;28;20300;-58
2023/04/15 05:50:50;;;;;;;5.03;4.27;;;;;;;9.60;78.35;63947.16;5073138;28;20212;-59
2023/04/15 05:53:15;;;;;;;7.50;4.37;;;;;;;9.74;77.03;63962.47;5073137;28;20573;-57
2023/04/15 05:55:41;;;;;;;5.63;4.20;;;;;;;9.71;77.37;63959.75;5055290;28;20593;-62
2023/04/15 05:58:06;;;;;;;6.30;3.50;;;;;;;9.86;75.40;63976.16;5073257;28;20747;-61
2023/04/15 06:00:32;;;;;;;5.87;3.57;;;;;;;9.84;77.05;63971.44;5072987;28;20550;-61
2023/04/15 06:02:58;;;;;;;6.23;4.07;;;;;;;9.62;79.66;63952.41;5073153;28;20212;-58
2023/04/15 06:05:24;;;;;;;7.70;4.33;;;;;;;9.91;78.08;63981.63;5072913;28;20279;-62
2023/04/15 06:07:50;;;;;;;7.37;2.80;;;;;;;9.76;74.67;63962.69;5054857;28;20299;-60
2023/04/15 06:10:15;;;;;;;4.73;2.00;;;;;;;9.90;73.23;63985.56;5072865;28;20272;-61
2023/04/15 06:12:41;;;;;;;7.30;2.50;;;;;;;9.83;75.24;63975.38;5071226;28;20218;-61
2023/04/15 06:15:09;;;;;;;3.43;2.30;;;;;;;9.73;75.91;63961.38;5072944;28;20238;-61
2023/04/15 06:17:35;;;;;;;3.20;2.00;;;;;;;9.84;75.48;63973.94;5072910;28;20222;-61
2023/04/15 06:20:00;;;;;;;4.37;2.07;;;;;;;10.14;72.77;64006.78;5072729;28;20616;-61
2023/04/15 06:22:25;;;;;;;4.53;2.87;;;;;;;10.17;74.20;64012.06;5072778;28;20659;-63
2023/04/15 06:24:51;;;;;;;8.67;2.13;;;;;;;10.12;74.06;64004.59;5072693;28;20253;-61
2023/04/15 06:27:17;;;;;;;5.73;2.90;;;;;;;10.30;72.49;64028.25;5054732;28;20181;-62
2023/04/15 06:29:43;;;;;;;12.47;2.77;;;;;;;10.35;72.65;64029.22;5072517;28;20612;-60
2023/04/15 06:32:09;;;;;;;5.17;3.23;;;;;;;10.32;73.98;64028.47;5054754;28;20185;-61
2023/04/15 06:34:35;;;;;;;5.27;2.73;;;;;;;10.47;74.40;64039.28;5054386;28;20227;-61
2023/04/15 06:37:00;;;;;;;5.90;3.40;;;;;;;10.42;73.18;64036.91;5054802;28;20643;-60
2023/04/15 06:39:26;;;;;;;8.43;3.50;;;;;;;10.59;73.25;64055.50;5072787;28;20242;-60
2023/04/15 06:41:51;;;;;;;5.00;3.50;;;;;;;10.76;73.05;64076.09;5072512;28;20548;-62
2023/04/15 06:44:17;;;;;;;4.73;2.97;;;;;;;10.76;73.73;64073.56;5072327;28;20683;-61
2023/04/15 06:46:43;;;;;;;8.40;3.97;;;;;;;10.42;72.54;64039.41;5072153;28;20200;-61
2023/04/15 06:49:10;;;;;;;8.90;3.50;;;;;;;10.78;71.72;64078.28;5071838;28;20212;-60
2023/04/15 06:51:36;;;;;;;7.17;2.70;;;;;;;10.93;71.14;64095.22;5072312;28;20224;-61
2023/04/15 06:54:05;;;;;;;4.47;3.20;;;;;;;11.09;71.38;64112.19;5054587;28;20228;-60
2023/04/15 06:56:36;;;;;;;6.13;3.50;;;;;;;10.82;71.51;64080.69;5054106;28;20584;-62
2023/04/15 06:59:02;;;;;;;6.27;2.80;;;;;;;10.72;70.29;64069.72;5071929;28;20213;-60
2023/04/15 07:01:34;;;;;;;5.77;2.70;;;;;;;10.98;81.00;64100.72;5071872;28;20732;-61
2023/04/15 07:04:00;;;;;;;4.60;3.10;;;;;;;11.23;70.64;64124.47;5070917;28;20212;-60
2023/04/15 07:06:26;;;;;;;4.70;2.97;;;;;;;11.13;70.90;64114.06;5071081;28;20189;-62
2023/04/15 07:08:52;;;;;;;7.63;2.93;;;;;;;11.34;69.46;64136.53;5071097;28;20208;-60
2023/04/15 07:11:17;;;;;;;4.07;2.50;;;;;;;11.38;69.65;64138.94;5071337;28;20189;-62
2023/04/15 07:13:42;;;;;;;4.10;2.60;;;;;;;11.65;69.51;64170.50;5071503;28;20329;-57
2023/04/15 07:16:08;;;;;;;3.43;2.50;;;;;;;11.72;66.24;64178.72;5071418;28;20189;-58
2023/04/15 07:18:33;;;;;;;2.97;2.37;;;;;;;11.59;67.22;64161.41;5070210;28;20216;-58
2023/04/15 07:21:04;;;;;;;5.57;2.00;;;;;;;11.56;69.04;64163.16;5071006;28;20197;-58
2023/04/15 07:23:30;;;;;;;2.60;2.10;;;;;;;11.48;68.48;64151.84;5070798;28;20263;-57
2023/04/15 07:25:56;;;;;;;5.67;2.37;;;;;;;11.41;67.95;64147.25;5071831;28;20688;-58
2023/04/15 07:28:21;;;;;;;2.80;2.30;;;;;;;11.78;68.33;64182.22;5071724;28;20239;-58
2023/04/15 07:30:48;;;;;;;3.03;2.00;;;;;;;11.57;68.01;64161.72;5071310;28;20629;-60
2023/04/15 07:33:13;;;;;;;6.67;2.87;;;;;;;11.48;68.35;64151.84;5071717;28;20209;-62
2023/04/15 07:35:38;;;;;;;5.87;2.60;;;;;;;11.57;66.69;64164.78;5071391;28;20192;-61
2023/04/15 07:38:04;;;;;;;4.97;2.60;;;;;;;11.46;65.88;64150.22;5071752;28;20215;-62
2023/04/15 07:40:29;;;;;;;7.93;2.70;;;;;;;11.43;67.40;64146.38;5072059;28;20241;-61
2023/04/15 07:42:57;;;;;;;5.00;2.53;;;;;;;11.48;67.85;64154.94;5071619;28;20292;-61
2023/04/15 07:45:22;;;;;;;7.53;3.07;;;;;;;11.90;67.28;64197.38;5071057;28;20188;-61
2023/04/15 07:47:49;;;;;;;9.30;2.47;;;;;;;12.21;65.05;64231.88;5071085;28;20196;-61
2023/04/15 07:50:16;;;;;;;5.80;2.87;;;;;;;12.23;68.35;64231.00;5071224;28;20193;-62
2023/04/15 07:52:41;;;;;;;5.67;3.07;;;;;;;12.39;66.19;64251.63;5071579;28;20196;-62
2023/04/15 07:55:08;;;;;;;3.53;2.53;;;;;;;12.37;65.73;64246.91;5071119;28;20211;-60
2023/04/15 07:57:34;;;;;;;4.27;2.60;;;;;;;12.20;64.39;64227.72;5071049;28;20220;-62
2023/04/15 08:00:00;;;;;;;7.73;2.73;;;;;;;11.96;63.63;64206.47;5071265;28;20197;-62
2023/04/15 08:02:25;;;;;;;4.57;2.67;;;;;;;12.34;64.74;64246.13;5071114;28;20196;-61
2023/04/15 08:04:52;;;;;;;6.90;3.20;;;;;;;12.34;66.55;64246.13;5078119;22;20225;-60
2023/04/15 08:07:17;;;;;;;4.93;2.50;;;;;;;12.58;66.44;64271.91;5070966;28;20276;-62
2023/04/15 08:09:43;;;;;;;6.60;2.70;;;;;;;12.85;66.35;64301.53;5070859;28;20308;-61
2023/04/15 08:12:12;;;;;;;6.50;2.50;;;;;;;13.15;64.39;64334.47;5070936;28;20185;-62
2023/04/15 08:14:37;;;;;;;4.27;2.20;;;;;;;13.22;64.95;64344.69;5070841;28;20681;-65
2023/04/15 08:17:03;;;;;;;8.23;2.97;;;;;;;13.18;66.84;64337.22;5070830;28;20184;-59
2023/04/15 08:19:29;;;;;;;5.75;2.42;;;;;;;13.38;64.14;64359.72;5070064;28;20212;-59
2023/04/15 08:21:55;;;;;;;5.27;2.63;;;;;;;13.66;65.32;64386.81;5070953;28;20674;-58
2023/04/15 08:24:20;;;;;;;4.07;2.57;;;;;;;13.97;63.07;64423.38;5070369;28;20213;-59
2023/04/15 08:26:46;;;;;;;5.18;1.80;;;;;;;14.01;60.11;64430.88;5070701;28;20172;-60
2023/04/15 08:29:12;;;;;;;3.60;2.72;;;;;;;13.86;60.42;64413.84;5070457;28;20219;-59
2023/04/15 08:31:37;;;;;;;3.10;2.17;;;;;;;13.84;60.69;64409.09;5070205;28;20426;-59
2023/04/15 08:34:03;;;;;;;6.32;2.35;;;;;;;13.89;56.32;64415.16;5052390;28;20702;-58
2023/04/15 08:36:29;;;;;;;4.22;2.58;;;;;;;13.78;59.85;64403.06;5069962;28;20191;-58
2023/04/15 08:38:54;;;;;;;3.58;1.88;;;;;;;13.89;59.20;64412.06;5052499;28;20296;-59
2023/04/15 08:41:26;;;;;;;4.47;2.55;;;;;;;14.07;56.04;64434.38;5069671;28;20185;-58
2023/04/15 08:44:03;;;;;;;6.80;3.67;;;;;;;14.05;57.36;64427.09;5070191;28;20211;-59
2023/04/15 08:46:30;;;;;;;4.35;1.60;;;;;;;14.09;53.74;64437.13;5068916;28;20207;-58
2023/04/15 08:48:57;;;;;;;5.13;1.85;;;;;;;14.50;55.02;64481.09;5070182;28;20748;-59
2023/04/15 08:51:24;;;;;;;4.32;1.77;;;;;;;14.61;53.33;64491.19;5069371;28;20181;-59
2023/04/15 08:53:50;;;;;;;2.95;2.03;;;;;;;15.05;56.90;64539.53;5069413;28;20223;-58
2023/04/15 08:56:17;;;;;;;4.13;1.92;;;;;;;15.31;54.48;64569.59;5069697;28;20670;-59
2023/04/15 08:58:43;;;;;;;2.13;1.92;;;;;;;15.35;55.62;64571.97;5070389;28;20691;-58
2023/04/15 09:01:11;;;;;;;4.07;2.05;;;;;;;15.51;53.07;64589.06;5068651;28;20271;-58
2023/04/15 09:03:37;;;;;;;2.88;1.95;;;;;;;15.86;49.84;64632.63;5070325;28;20223;-58
2023/04/15 09:06:04;;;;;;;6.05;3.83;;;;;;;15.81;50.83;64627.13;5068961;28;20200;-61
2023/04/15 09:08:30;;;;;;;4.15;1.42;;;;;;;15.74;45.55;64619.44;5069266;28;20303;-60
2023/04/15 09:10:55;;;;;;;1.45;1.30;;;;;;;16.24;45.14;64674.44;5069301;28;20702;-59
2023/04/15 09:13:21;;;;;;;3.08;1.30;;;;;;;16.15;44.31;64658.91;5070269;28;20300;-59
2023/04/15 09:15:48;;;;;;;1.85;1.25;;;;;;;16.21;46.69;64665.53;5069886;28;20185;-59
2023/04/15 09:18:27;;;;;;;1.73;1.17;;;;;;;16.66;47.14;64715.09;5069374;28;20288;-60
2023/04/15 09:20:53;;;;;;;2.83;1.15;;;;;;;16.87;42.82;64737.66;5070209;28;20192;-58
2023/04/15 09:23:18;;;;;;;1.95;1.20;;;;;;;16.80;45.07;64730.50;5070200;28;20595;-59
2023/04/15 09:25:44;;;;;;;1.13;1.05;;;;;;;16.82;42.90;64734.69;5070145;28;20200;-58
2023/04/15 09:28:10;;;;;;;2.47;1.10;;;;;;;17.02;41.42;64751.63;5068379;28;20603;-59
2023/04/15 09:30:36;;;;;;;1.40;0.93;;;;;;;16.03;42.00;64648.81;5070208;28;20184;-59
2023/04/15 09:33:06;;;;;;;10.30;2.20;;;;;;;16.03;42.04;64646.25;5052099;28;20201;-59
2023/04/15 09:35:33;;;;;;;7.93;1.67;;;;;;;15.90;40.86;64632.50;5069712;28;20161;-58
2023/04/15 09:38:06;;;;;;;3.80;1.27;;;;;;;15.79;42.48;64622.41;5069984;28;20249;-61
2023/04/15 09:40:36;;;;;;;0.85;0.70;;;;;;;15.76;41.16;64617.09;5069588;28;20181;-61
2023/04/15 09:43:03;;;;;;;1.45;1.02;;;;;;;16.28;41.00;64673.78;5069639;28;20601;-62
2023/04/15 09:45:30;;;;;;;3.97;2.45;;;;;;;15.91;40.82;64633.06;5069316;28;20422;-60
2023/04/15 09:48:15;;;;;;;2.05;0.80;;;;;;;16.08;40.02;64651.75;5069164;28;20224;-63
2023/04/15 09:50:41;;;;;;;3.35;1.23;;;;;;;16.33;39.33;64681.81;5069382;28;20667;-61
2023/04/15 09:53:13;;;;;;;3.40;1.02;;;;;;;16.24;38.39;64671.38;5070208;28;20270;-62
2023/04/15 09:55:39;;;;;;;1.77;0.90;;;;;;;16.28;37.95;64673.22;5073057;28;20200;-62
2023/04/15 09:58:09;;;;;;;1.52;1.08;;;;;;;15.98;39.06;64640.22;5073153;28;20686;-63
2023/04/15 10:00:35;;;;;;;1.50;1.00;;;;;;;16.17;38.83;64663.66;5072298;28;20242;-61
2023/04/15 10:03:01;;;;;;;2.63;1.17;;;;;;;16.14;38.89;64660.91;5072943;28;20217;-62
2023/04/15 10:05:28;;;;;;;4.72;2.50;;;;;;;16.12;40.05;64656.16;5073154;28;20212;-60
2023/04/15 10:07:54;;;;;;;1.42;0.82;;;;;;;16.43;39.78;64692.28;5072533;28;20690;-62
2023/04/15 10:10:20;;;;;;;2.25;0.55;;;;;;;16.81;39.01;64731.59;5071482;28;20208;-62
2023/04/15 10:12:45;;;;;;;1.00;0.90;;;;;;;17.06;40.84;64758.59;5072001;28;20311;-61
2023/04/15 10:15:15;;;;;;;1.48;0.82;;;;;;;17.14;40.23;64767.41;5053612;28;20184;-61
2023/04/15 10:17:43;;;;;;;2.47;1.10;;;;;;;17.20;40.92;64774.56;5072804;28;20196;-60
2023/04/15 10:20:09;;;;;;;1.45;1.02;;;;;;;17.52;40.37;64809.28;5072801;28;20677;-62
2023/04/15 10:22:36;;;;;;;9.02;3.55;;;;;;;17.82;37.74;64841.78;5072709;28;20185;-59
2023/04/15 10:25:03;;;;;;;4.28;1.00;;;;;;;17.80;35.80;64839.59;5072573;28;20181;-58
2023/04/15 10:27:29;;;;;;;2.85;1.23;;;;;;;18.22;34.46;64885.91;5072354;28;20189;-58
2023/04/15 10:29:56;;;;;;;2.83;0.88;;;;;;;18.81;35.00;64951.00;5071867;28;20219;-58
2023/04/15 10:32:22;;;;;;;6.80;2.22;;;;;;;18.57;35.06;64923.97;5054937;28;20251;-59
2023/04/15 10:34:50;;;;;;;3.65;1.63;;;;;;;18.80;34.41;64949.34;5072696;28;20244;-56
2023/04/15 10:37:32;;;;;;;2.22;1.35;;;;;;;18.01;33.35;64865.28;5072705;28;20181;-60
2023/04/15 10:39:58;;;;;;;2.45;1.38;;;;;;;17.43;34.60;64799.34;5072279;28;20197;-58
2023/04/15 10:42:23;;;;;;;1.67;1.30;;;;;;;17.56;37.22;64814.25;5072607;28;20192;-61
2023/04/15 10:44:51;;;;;;;2.33;1.10;;;;;;;17.56;35.49;64814.25;5072245;28;20204;-61
2023/04/15 10:47:19;;;;;;;1.08;0.90;;;;;;;18.11;35.81;64873.78;5072010;28;20180;-62
2023/04/15 10:49:58;;;;;;;3.78;1.27;;;;;;;18.56;35.63;64925.44;5072446;28;20219;-60
2023/04/15 10:52:26;;;;;;;1.85;0.85;;;;;;;18.91;36.25;64962.03;5072453;28;20196;-60
2023/04/15 10:55:10;;;;;;;1.70;1.10;;;;;;;19.20;35.79;64996.03;5072249;28;20208;-59
2023/04/15 10:57:39;;;;;;;2.28;1.00;;;;;;;19.58;36.63;65034.91;5072398;28;20200;-62
2023/04/15 11:00:29;;;;;;;0.88;0.80;;;;;;;19.59;35.19;65034.00;5072281;28;20243;-61
2023/04/15 11:03:04;;;;;;;1.55;0.80;;;;;;;19.62;33.76;65039.88;5060186;28;20236;-60
2023/04/15 11:05:41;;;;;;;4.00;1.42;;;;;;;19.43;35.42;65018.91;5071542;28;20177;-61
2023/04/15 11:08:10;;;;;;;2.65;1.20;;;;;;;19.50;35.50;65026.06;5072178;28;20328;-60
2023/04/15 11:10:36;;;;;;;1.77;1.10;;;;;;;19.81;35.46;65060.88;5072048;28;20189;-60
2023/04/15 11:13:35;;;;;;;2.67;1.00;;;;;;;19.85;35.70;65065.28;5072149;28;20216;-62
2023/04/15 11:16:02;;;;;;;3.28;1.20;;;;;;;19.39;34.50;65013.94;5027711;28;20201;-60
2023/04/15 11:18:29;;;;;;;1.67;1.10;;;;;;;19.58;39.47;65034.91;5072275;28;20207;-59
2023/04/15 11:20:58;;;;;;;1.67;1.30;;;;;;;20.09;40.98;65091.22;5071901;28;20200;-60
2023/04/15 11:23:29;;;;;;;3.10;1.30;;;;;;;20.03;44.03;65082.06;5071935;28;20671;-61
2023/04/15 11:25:56;;;;;;;4.10;1.70;;;;;;;20.33;37.76;65117.78;5071759;28;20193;-60
2023/04/15 11:28:28;;;;;;;4.20;2.00;;;;;;;20.50;43.17;65133.97;5071626;28;20257;-60
2023/04/15 11:30:54;;;;;;;3.22;1.40;;;;;;;20.64;38.07;65148.91;5053268;28;20188;-59
2023/04/15 11:33:21;;;;;;;3.08;1.73;;;;;;;20.92;43.44;65183.00;5071616;28;20228;-59